Time;durP1;ratioP1;P1;durP2;ratioP2;P2;SDS_P1;SDS_P2;PMS_P1;PMS_P2;Temp;Humidity;BMP_temperature;BMP_pressure;BME280_temperature;BME280_humidity;BME280_pressure;Samples;Min_cycle;Max_cycle;Signal;HPM_P1;HPM_P2
2023/06/04 00:00:12;;;;;;;;;;;14.50;99.90;;;;;;4924866;29;19941;-64
2023/06/04 00:02:44;;;;;;;;;;;14.40;99.90;;;;;;4922577;29;20690;-65
2023/06/04 00:05:16;;;;;;;;;;;14.40;99.90;;;;;;4938340;28;19933;-64
2023/06/04 00:07:48;;;;;;;;;;;14.40;99.90;;;;;;4927520;29;19933;-64
2023/06/04 00:10:20;;;;;;;;;;;14.40;99.90;;;;;;4938737;28;20306;-64
2023/06/04 00:12:46;;;;;;;;;;;14.30;99.90;;;;;;4924881;28;20052;-65
2023/06/04 00:15:18;;;;;;;;;;;14.30;99.90;;;;;;4941650;28;19937;-64
2023/06/04 00:17:45;;;;;;;;;;;14.30;99.90;;;;;;4926226;29;20411;-65
2023/06/04 00:20:11;;;;;;;;;;;14.30;99.90;;;;;;4927854;29;20021;-64
2023/06/04 00:22:43;;;;;;;;;;;14.20;99.90;;;;;;4932563;29;20280;-64
2023/06/04 00:25:15;;;;;;;;;;;14.20;99.90;;;;;;4913546;29;19933;-64
2023/06/04 00:27:47;;;;;;;;;;;14.20;99.90;;;;;;4926124;29;20415;-64
2023/06/04 00:30:19;;;;;;;;;;;14.10;99.90;;;;;;4939557;28;19926;-64
2023/06/04 00:32:50;;;;;;;;;;;14.20;99.90;;;;;;4920299;29;19933;-64
2023/06/04 00:35:22;;;;;;;;;;;14.10;99.90;;;;;;4936921;28;19937;-64
2023/06/04 00:37:54;;;;;;;;;;;14.10;99.90;;;;;;4924631;29;19927;-65
2023/06/04 00:40:26;;;;;;;;;;;14.00;99.90;;;;;;4938079;28;19966;-64
2023/06/04 00:42:57;;;;;;;;;;;14.00;99.90;;;;;;4925275;29;19937;-64
2023/06/04 00:45:30;;;;;;;;;;;13.90;99.90;;;;;;4925551;29;19966;-64
2023/06/04 00:48:02;;;;;;;;;;;13.90;99.90;;;;;;4925780;29;20297;-64
2023/06/04 00:50:35;;;;;;;;;;;13.80;99.90;;;;;;4940648;28;19981;-65
2023/06/04 00:53:02;;;;;;;;;;;13.70;99.90;;;;;;4931717;29;19927;-65
2023/06/04 00:55:34;;;;;;;;;;;13.70;99.90;;;;;;4936430;28;19986;-64
2023/06/04 00:58:06;;;;;;;;;;;13.70;99.90;;;;;;4920442;29;19934;-64
2023/06/04 01:00:39;;;;;;;;;;;13.70;99.90;;;;;;4921086;29;19978;-64
2023/06/04 01:03:11;;;;;;;;;;;13.70;99.90;;;;;;4920988;29;20021;-64
2023/06/04 01:05:43;;;;;;;;;;;13.70;99.90;;;;;;4924368;29;20369;-64
2023/06/04 01:08:15;;;;;;;;;;;13.70;99.90;;;;;;4927814;29;19927;-65
2023/06/04 01:10:55;;;;;;;;;;;13.60;99.90;;;;;;4926123;29;19933;-64
2023/06/04 01:13:22;;;;;;;;;;;13.60;99.90;;;;;;4924537;29;19931;-64
2023/06/04 01:15:54;;;;;;;;;;;13.60;99.90;;;;;;4921343;29;19927;-64
2023/06/04 01:18:27;;;;;;;;;;;13.60;99.90;;;;;;4938270;28;19927;-64
2023/06/04 01:21:01;;;;;;;;;;;13.60;99.90;;;;;;4935675;28;19930;-65
2023/06/04 01:23:42;;;;;;;;;;;13.70;99.90;;;;;;4926322;29;19927;-64
2023/06/04 01:26:14;;;;;;;;;;;13.70;99.90;;;;;;4936925;28;20466;-65
2023/06/04 01:28:46;;;;;;;;;;;13.70;99.90;;;;;;4939289;28;20374;-64
2023/06/04 01:31:22;;;;;;;;;;;13.60;99.90;;;;;;4929118;29;20025;-64
2023/06/04 01:33:53;;;;;;;;;;;13.60;99.90;;;;;;4928415;29;19937;-64
2023/06/04 01:36:20;;;;;;;;;;;13.50;99.90;;;;;;4944001;28;19982;-64
2023/06/04 01:38:51;;;;;;;;;;;13.60;99.90;;;;;;4940558;28;20025;-64
2023/06/04 01:41:18;;;;;;;;;;;13.50;99.90;;;;;;4938380;28;20430;-64
2023/06/04 01:43:50;;;;;;;;;;;13.50;99.90;;;;;;4936067;28;20277;-65
2023/06/04 01:46:22;;;;;;;;;;;13.50;99.90;;;;;;4934329;28;20300;-65
2023/06/04 01:48:48;;;;;;;;;;;13.50;99.90;;;;;;4925332;29;19934;-64
2023/06/04 01:51:20;;;;;;;;;;;13.50;99.90;;;;;;4928972;29;19927;-65
2023/06/04 01:53:52;;;;;;;;;;;13.30;99.90;;;;;;4928714;29;20025;-64
2023/06/04 01:56:21;;;;;;;;;;;13.30;99.90;;;;;;4944972;28;19933;-64
2023/06/04 01:58:47;;;;;;;;;;;13.10;99.90;;;;;;4926730;29;19966;-64
2023/06/04 02:01:19;;;;;;;;;;;13.10;99.90;;;;;;4926720;29;20014;-64
2023/06/04 02:03:52;;;;;;;;;;;13.10;99.90;;;;;;4924656;29;20398;-64
2023/06/04 02:06:18;;;;;;;;;;;13.00;99.90;;;;;;4936154;28;19934;-64
2023/06/04 02:08:54;;;;;;;;;;;13.00;99.90;;;;;;4922206;29;19933;-65
2023/06/04 02:11:25;;;;;;;;;;;13.00;99.90;;;;;;4933080;28;19938;-64
2023/06/04 02:13:57;;;;;;;;;;;12.90;99.90;;;;;;4918834;29;19938;-64
2023/06/04 02:16:29;;;;;;;;;;;12.90;99.90;;;;;;4932364;29;19927;-66
2023/06/04 02:19:01;;;;;;;;;;;12.80;99.90;;;;;;4928918;29;19927;-66
2023/06/04 02:21:32;;;;;;;;;;;12.80;99.90;;;;;;4942972;28;20490;-67
2023/06/04 02:24:04;;;;;;;;;;;12.70;99.90;;;;;;4924895;29;20392;-66
2023/06/04 02:26:32;;;;;;;;;;;12.70;99.90;;;;;;4920158;29;19927;-67
2023/06/04 02:29:04;;;;;;;;;;;12.60;99.90;;;;;;4926867;29;20323;-66
2023/06/04 02:31:31;;;;;;;;;;;12.50;99.90;;;;;;4922000;29;20420;-66
2023/06/04 02:34:03;;;;;;;;;;;12.50;99.90;;;;;;4918892;29;19959;-66
2023/06/04 02:36:30;;;;;;;;;;;12.50;99.90;;;;;;4927231;29;19927;-66
2023/06/04 02:38:57;;;;;;;;;;;12.40;99.90;;;;;;4928978;29;19974;-66
2023/06/04 02:41:29;;;;;;;;;;;12.40;99.90;;;;;;4942864;28;19927;-66
2023/06/04 02:44:01;;;;;;;;;;;12.30;99.90;;;;;;4942774;28;20027;-66
2023/06/04 02:46:32;;;;;;;;;;;12.20;99.90;;;;;;4939060;28;19931;-66
2023/06/04 02:49:04;;;;;;;;;;;12.20;99.90;;;;;;4926397;29;19927;-66
2023/06/04 02:51:36;;;;;;;;;;;12.20;99.90;;;;;;4930409;29;20433;-67
2023/06/04 02:54:08;;;;;;;;;;;12.20;99.90;;;;;;4930788;29;19927;-67
2023/06/04 02:56:40;;;;;;;;;;;12.10;99.90;;;;;;4931276;29;19938;-66
2023/06/04 02:59:09;;;;;;;;;;;12.10;99.90;;;;;;4928695;29;20543;-67
2023/06/04 03:01:36;;;;;;;;;;;12.10;99.90;;;;;;4943274;28;19927;-66
2023/06/04 03:04:09;;;;;;;;;;;12.10;99.90;;;;;;4926350;29;19952;-67
2023/06/04 03:06:44;;;;;;;;;;;12.10;99.90;;;;;;4927526;29;20017;-66
2023/06/04 03:09:16;;;;;;;;;;;12.00;99.90;;;;;;4923923;29;19978;-66
2023/06/04 03:11:44;;;;;;;;;;;12.00;99.90;;;;;;4925779;29;19974;-66
2023/06/04 03:14:11;;;;;;;;;;;11.90;99.90;;;;;;4929164;29;20021;-66
2023/06/04 03:16:42;;;;;;;;;;;11.90;99.90;;;;;;4927146;29;20346;-66
2023/06/04 03:19:14;;;;;;;;;;;12.00;99.90;;;;;;4929751;29;19937;-66
2023/06/04 03:21:50;;;;;;;;;;;11.90;99.90;;;;;;4929603;29;19953;-66
2023/06/04 03:24:17;;;;;;;;;;;12.00;99.90;;;;;;4924909;29;19934;-66
2023/06/04 03:26:48;;;;;;;;;;;12.00;99.90;;;;;;4920440;29;19966;-66
2023/06/04 03:29:21;;;;;;;;;;;11.90;99.90;;;;;;4938018;28;19974;-66
2023/06/04 03:31:52;;;;;;;;;;;11.90;99.90;;;;;;4939598;28;19927;-66
2023/06/04 03:34:25;;;;;;;;;;;11.90;99.90;;;;;;4940137;28;20284;-66
2023/06/04 03:36:57;;;;;;;;;;;11.90;99.90;;;;;;4938853;28;20049;-66
2023/06/04 03:39:30;;;;;;;;;;;11.90;99.90;;;;;;4941424;28;19931;-66
2023/06/04 03:41:58;;;;;;;;;;;11.90;99.90;;;;;;4927216;29;19931;-66
2023/06/04 03:44:31;;;;;;;;;;;11.80;99.90;;;;;;4941354;28;19934;-66
2023/06/04 03:47:03;;;;;;;;;;;11.90;99.90;;;;;;4922636;29;19927;-66
2023/06/04 03:49:30;;;;;;;;;;;11.90;99.90;;;;;;4937200;28;20398;-66
2023/06/04 03:52:02;;;;;;;;;;;11.90;99.90;;;;;;4938150;28;19933;-66
2023/06/04 03:54:28;;;;;;;;;;;11.90;99.90;;;;;;4937422;28;19927;-66
2023/06/04 03:56:56;;;;;;;;;;;11.90;99.90;;;;;;4921790;29;19931;-67
2023/06/04 03:59:28;;;;;;;;;;;11.90;99.90;;;;;;4937567;28;19931;-66
2023/06/04 04:01:55;;;;;;;;;;;11.90;99.90;;;;;;4926085;29;20364;-66
2023/06/04 04:04:27;;;;;;;;;;;11.90;99.90;;;;;;4926991;29;19954;-66
2023/06/04 04:07:00;;;;;;;;;;;11.90;99.90;;;;;;4942017;28;19927;-66
2023/06/04 04:09:32;;;;;;;;;;;12.00;99.90;;;;;;4939281;28;20014;-66
2023/06/04 04:11:59;;;;;;;;;;;12.00;99.90;;;;;;4921295;29;19927;-67
2023/06/04 04:14:26;;;;;;;;;;;12.00;99.90;;;;;;4921482;29;20060;-66
2023/06/04 04:16:58;;;;;;;;;;;12.10;99.90;;;;;;4934896;28;19937;-66
2023/06/04 04:19:30;;;;;;;;;;;12.20;99.90;;;;;;4984613;23;20021;-67
2023/06/04 04:22:03;;;;;;;;;;;12.20;99.90;;;;;;4985681;28;19936;-66
2023/06/04 04:24:30;;;;;;;;;;;12.20;99.90;;;;;;4986298;28;19989;-66
2023/06/04 04:27:03;;;;;;;;;;;12.20;99.90;;;;;;4988785;28;19933;-67
2023/06/04 04:29:35;;;;;;;;;;;12.20;99.90;;;;;;4983736;28;19926;-66
2023/06/04 04:32:10;;;;;;;;;;;12.20;99.90;;;;;;4989171;28;19933;-68
2023/06/04 04:34:54;;;;;;;;;;;12.20;99.90;;;;;;4971729;28;20402;-66
2023/06/04 04:37:33;;;;;;;;;;;12.20;99.90;;;;;;4977304;28;20365;-66
2023/06/04 04:40:09;;;;;;;;;;;12.30;99.90;;;;;;4977707;28;19933;-68
2023/06/04 04:42:44;;;;;;;;;;;12.30;99.90;;;;;;4975377;28;19949;-68
2023/06/04 04:45:17;;;;;;;;;;;12.30;99.90;;;;;;4987743;28;19934;-66
2023/06/04 04:47:51;;;;;;;;;;;12.40;99.90;;;;;;4987509;28;20402;-66
2023/06/04 04:50:23;;;;;;;;;;;12.40;99.90;;;;;;4990245;28;19929;-67
2023/06/04 04:52:56;;;;;;;;;;;12.40;99.90;;;;;;4988848;28;19926;-67
2023/06/04 04:55:28;;;;;;;;;;;12.50;99.90;;;;;;4988484;28;19929;-68
2023/06/04 04:57:55;;;;;;;;;;;12.50;99.90;;;;;;4987928;28;20386;-67
2023/06/04 05:00:28;;;;;;;;;;;12.60;99.90;;;;;;4991733;28;19952;-68
2023/06/04 05:03:01;;;;;;;;;;;12.60;99.90;;;;;;4991549;28;20017;-67
2023/06/04 05:05:33;;;;;;;;;;;12.60;99.90;;;;;;4971752;28;19930;-67
2023/06/04 05:08:05;;;;;;;;;;;12.60;99.90;;;;;;4978622;28;19933;-68
2023/06/04 05:10:40;;;;;;;;;;;12.60;99.90;;;;;;4996328;28;19978;-68
2023/06/04 05:13:12;;;;;;;;;;;12.60;99.90;;;;;;4993474;28;19930;-67
2023/06/04 05:15:52;;;;;;;;;;;12.60;99.90;;;;;;4992906;28;19926;-67
2023/06/04 05:18:28;;;;;;;;;;;12.60;99.90;;;;;;4992914;28;19937;-68
2023/06/04 05:21:02;;;;;;;;;;;12.70;99.90;;;;;;4972103;28;20399;-68
2023/06/04 05:23:39;;;;;;;;;;;12.70;99.90;;;;;;4981708;28;20005;-68
2023/06/04 05:26:11;;;;;;;;;;;12.80;99.90;;;;;;4979017;28;19927;-67
2023/06/04 05:28:43;;;;;;;;;;;12.90;99.90;;;;;;4993819;28;19973;-67
2023/06/04 05:31:17;;;;;;;;;;;13.00;99.90;;;;;;4990848;28;19941;-67
2023/06/04 05:33:50;;;;;;;;;;;13.00;99.90;;;;;;4993041;28;19926;-68
2023/06/04 05:36:24;;;;;;;;;;;13.10;99.90;;;;;;5006191;28;19934;-68
2023/06/04 05:38:59;;;;;;;;;;;13.20;99.90;;;;;;4992580;28;19936;-67
2023/06/04 05:41:33;;;;;;;;;;;13.20;99.90;;;;;;4989820;28;19937;-68
2023/06/04 05:44:05;;;;;;;;;;;13.30;99.90;;;;;;4984267;28;19934;-68
2023/06/04 05:46:38;;;;;;;;;;;13.30;99.90;;;;;;4984406;28;19930;-68
2023/06/04 05:49:11;;;;;;;;;;;13.30;99.90;;;;;;4989935;28;19926;-67
2023/06/04 05:51:43;;;;;;;;;;;13.40;99.90;;;;;;4976398;28;20298;-67
2023/06/04 05:54:16;;;;;;;;;;;13.50;99.90;;;;;;4991047;28;19932;-67
2023/06/04 05:56:49;;;;;;;;;;;13.60;99.90;;;;;;4990724;28;20044;-67
2023/06/04 05:59:21;;;;;;;;;;;13.60;99.90;;;;;;4986169;28;19933;-67
2023/06/04 06:01:49;;;;;;;;;;;13.70;99.90;;;;;;4993434;28;19926;-67
2023/06/04 06:04:21;;;;;;;;;;;13.70;99.90;;;;;;4992950;28;19929;-67
2023/06/04 06:06:48;;;;;;;;;;;13.80;99.90;;;;;;4991104;28;20406;-67
2023/06/04 06:09:20;;;;;;;;;;;13.80;99.90;;;;;;4989436;28;19937;-67
2023/06/04 06:11:52;;;;;;;;;;;13.80;99.90;;;;;;4976679;28;20040;-66
2023/06/04 06:14:24;;;;;;;;;;;13.80;99.90;;;;;;4989929;28;19974;-68
2023/06/04 06:16:57;;;;;;;;;;;13.90;99.90;;;;;;5004407;28;20044;-67
2023/06/04 06:19:29;;;;;;;;;;;14.00;99.90;;;;;;4992385;28;19926;-68
2023/06/04 06:22:01;;;;;;;;;;;14.10;99.90;;;;;;4990261;28;19962;-67
2023/06/04 06:24:29;;;;;;;;;;;14.20;99.90;;;;;;4984805;28;19933;-67
2023/06/04 06:27:01;;;;;;;;;;;14.30;99.90;;;;;;4993189;28;19926;-67
2023/06/04 06:29:33;;;;;;;;;;;14.40;99.90;;;;;;4991688;28;19933;-67
2023/06/04 06:32:00;;;;;;;;;;;14.40;99.90;;;;;;4991404;28;19988;-68
2023/06/04 06:34:32;;;;;;;;;;;14.60;99.90;;;;;;4989585;28;19933;-67
2023/06/04 06:36:59;;;;;;;;;;;14.60;99.90;;;;;;4988959;28;19930;-67
2023/06/04 06:39:32;;;;;;;;;;;14.70;99.90;;;;;;4987459;28;19949;-67
2023/06/04 06:42:03;;;;;;;;;;;14.80;99.90;;;;;;4989502;28;19958;-67
2023/06/04 06:44:40;;;;;;;;;;;14.90;99.90;;;;;;4990701;28;19925;-67
2023/06/04 06:47:13;;;;;;;;;;;15.00;99.90;;;;;;4984782;28;19937;-67
2023/06/04 06:49:45;;;;;;;;;;;15.10;99.90;;;;;;4982223;28;19930;-69
2023/06/04 06:52:19;;;;;;;;;;;15.20;99.90;;;;;;4991127;28;19933;-67
2023/06/04 06:54:52;;;;;;;;;;;15.30;99.90;;;;;;4985493;28;19933;-68
2023/06/04 06:57:19;;;;;;;;;;;15.40;99.90;;;;;;4990608;28;19926;-67
2023/06/04 06:59:53;;;;;;;;;;;15.50;99.90;;;;;;5001159;28;19926;-69
2023/06/04 07:02:20;;;;;;;;;;;15.60;99.90;;;;;;4986462;28;20024;-67
2023/06/04 07:04:52;;;;;;;;;;;15.70;99.90;;;;;;4989064;28;20025;-66
2023/06/04 07:07:24;;;;;;;;;;;15.80;99.90;;;;;;4990241;28;19936;-67
2023/06/04 07:09:56;;;;;;;;;;;15.90;99.90;;;;;;4983366;28;19932;-67
2023/06/04 07:12:28;;;;;;;;;;;16.00;99.90;;;;;;4983896;28;19925;-67
2023/06/04 07:14:55;;;;;;;;;;;16.10;99.90;;;;;;4981083;28;19930;-67
2023/06/04 07:17:27;;;;;;;;;;;16.20;99.90;;;;;;4984264;28;19953;-67
2023/06/04 07:20:00;;;;;;;;;;;16.30;99.90;;;;;;4989511;28;19972;-68
2023/06/04 07:22:27;;;;;;;;;;;16.40;99.90;;;;;;4983455;28;19929;-67
2023/06/04 07:24:58;;;;;;;;;;;16.50;99.90;;;;;;4989076;28;20291;-67
2023/06/04 07:27:31;;;;;;;;;;;16.50;99.90;;;;;;4984319;28;19996;-67
2023/06/04 07:30:03;;;;;;;;;;;16.60;99.90;;;;;;4988062;28;20391;-67
2023/06/04 07:32:30;;;;;;;;;;;16.70;99.90;;;;;;4990388;28;19932;-66
2023/06/04 07:35:02;;;;;;;;;;;16.80;99.90;;;;;;4983619;28;19926;-69
2023/06/04 07:37:34;;;;;;;;;;;16.90;99.90;;;;;;4978695;28;19977;-66
2023/06/04 07:40:06;;;;;;;;;;;17.00;99.90;;;;;;4980516;28;19973;-68
2023/06/04 07:42:33;;;;;;;;;;;17.10;99.90;;;;;;4989543;28;20309;-68
2023/06/04 07:45:05;;;;;;;;;;;17.20;99.90;;;;;;4987921;28;19934;-68
2023/06/04 07:47:37;;;;;;;;;;;17.30;99.90;;;;;;4984809;28;19932;-68
2023/06/04 07:50:09;;;;;;;;;;;17.50;99.90;;;;;;4986926;28;19936;-68
2023/06/04 07:52:41;;;;;;;;;;;17.60;99.90;;;;;;4982141;28;20699;-67
2023/06/04 07:55:13;;;;;;;;;;;17.70;99.90;;;;;;4985689;28;19930;-67
2023/06/04 07:57:45;;;;;;;;;;;17.80;99.90;;;;;;4987013;28;19929;-67
2023/06/04 08:00:17;;;;;;;;;;;17.90;99.90;;;;;;4985816;28;19926;-68
2023/06/04 08:02:50;;;;;;;;;;;17.90;99.90;;;;;;4984287;28;19926;-66
2023/06/04 08:05:23;;;;;;;;;;;18.00;99.90;;;;;;4990000;28;20012;-69
2023/06/04 08:07:54;;;;;;;;;;;18.20;99.90;;;;;;4990464;28;19948;-68
2023/06/04 08:10:26;;;;;;;;;;;18.30;99.90;;;;;;4988145;28;20009;-68
2023/06/04 08:12:53;;;;;;;;;;;18.40;99.90;;;;;;4985513;28;19926;-69
2023/06/04 08:15:20;;;;;;;;;;;18.40;99.90;;;;;;4988538;28;20403;-69
2023/06/04 08:17:52;;;;;;;;;;;18.60;99.90;;;;;;4984968;28;19926;-69
2023/06/04 08:20:23;;;;;;;;;;;18.70;99.90;;;;;;4976452;28;19926;-68
2023/06/04 08:22:55;;;;;;;;;;;18.80;99.90;;;;;;4988137;28;19929;-68
2023/06/04 08:25:22;;;;;;;;;;;18.90;99.90;;;;;;4983376;28;20405;-69
2023/06/04 08:27:55;;;;;;;;;;;19.00;99.90;;;;;;4984055;28;20287;-67
2023/06/04 08:30:27;;;;;;;;;;;19.20;99.90;;;;;;4987471;28;19930;-67
2023/06/04 08:32:54;;;;;;;;;;;19.30;99.90;;;;;;4985743;28;19930;-68
2023/06/04 08:35:25;;;;;;;;;;;19.40;99.90;;;;;;4989536;28;19932;-68
2023/06/04 08:37:58;;;;;;;;;;;19.60;99.90;;;;;;4986131;28;19925;-69
2023/06/04 08:40:31;;;;;;;;;;;19.60;99.90;;;;;;4989321;28;20013;-69
2023/06/04 08:43:04;;;;;;;;;;;19.80;99.90;;;;;;4983592;28;20318;-68
2023/06/04 08:45:32;;;;;;;;;;;19.90;99.90;;;;;;4979327;28;20400;-66
2023/06/04 08:48:08;;;;;;;;;;;20.00;99.90;;;;;;4983471;28;19934;-68
2023/06/04 08:50:42;;;;;;;;;;;20.10;99.00;;;;;;4958486;28;19930;-68
2023/06/04 08:53:15;;;;;;;;;;;20.10;99.50;;;;;;4987140;28;19933;-68
2023/06/04 08:55:49;;;;;;;;;;;20.20;98.90;;;;;;4986429;28;20560;-68
2023/06/04 08:58:17;;;;;;;;;;;20.30;99.30;;;;;;4989060;28;19954;-68
2023/06/04 09:00:49;;;;;;;;;;;20.40;98.90;;;;;;4982707;28;19933;-68
2023/06/04 09:03:21;;;;;;;;;;;20.50;98.60;;;;;;4982066;28;20314;-68
2023/06/04 09:05:53;;;;;;;;;;;20.60;97.70;;;;;;4985487;28;19934;-68
2023/06/04 09:08:21;;;;;;;;;;;20.70;98.00;;;;;;4975324;28;19937;-68
2023/06/04 09:10:54;;;;;;;;;;;20.80;98.80;;;;;;4979314;28;19933;-68
2023/06/04 09:13:28;;;;;;;;;;;20.80;96.80;;;;;;4986901;28;19934;-68
2023/06/04 09:16:03;;;;;;;;;;;20.90;98.10;;;;;;4984384;28;19985;-68
2023/06/04 09:18:35;;;;;;;;;;;21.10;97.00;;;;;;4982148;28;19926;-68
2023/06/04 09:21:08;;;;;;;;;;;21.20;96.90;;;;;;4984283;28;20017;-68
2023/06/04 09:23:44;;;;;;;;;;;21.30;97.20;;;;;;4979569;28;19940;-69
2023/06/04 09:26:15;;;;;;;;;;;21.50;96.90;;;;;;4984831;28;20461;-69
2023/06/04 09:28:47;;;;;;;;;;;21.40;95.50;;;;;;4985716;28;19926;-67
2023/06/04 09:31:15;;;;;;;;;;;21.50;96.70;;;;;;4987893;28;19972;-68
2023/06/04 09:33:50;;;;;;;;;;;21.60;96.40;;;;;;4971408;28;19947;-68
2023/06/04 09:36:17;;;;;;;;;;;21.70;94.50;;;;;;4984895;28;20472;-68
2023/06/04 09:38:49;;;;;;;;;;;21.70;95.80;;;;;;4976373;28;19926;-67
2023/06/04 09:41:21;;;;;;;;;;;21.80;94.90;;;;;;4980095;28;20470;-68
2023/06/04 09:43:48;;;;;;;;;;;21.90;95.20;;;;;;4983868;28;19925;-69
2023/06/04 09:46:20;;;;;;;;;;;22.10;94.60;;;;;;4986886;28;19932;-67
2023/06/04 09:48:47;;;;;;;;;;;22.10;94.30;;;;;;4987782;28;20390;-67
2023/06/04 09:51:20;;;;;;;;;;;22.10;93.90;;;;;;4987255;28;19926;-68
2023/06/04 09:53:57;;;;;;;;;;;22.20;95.00;;;;;;4985792;28;20315;-69
2023/06/04 09:56:29;;;;;;;;;;;22.20;93.70;;;;;;4992318;28;19932;-67
2023/06/04 09:59:01;;;;;;;;;;;22.10;93.40;;;;;;4986280;28;19936;-68
2023/06/04 10:01:33;;;;;;;;;;;22.10;93.60;;;;;;4985651;28;20472;-67
2023/06/04 10:04:07;;;;;;;;;;;22.30;94.00;;;;;;4980325;28;19993;-68
2023/06/04 10:06:39;;;;;;;;;;;22.40;93.00;;;;;;4980707;28;19926;-67
2023/06/04 10:09:13;;;;;;;;;;;22.50;92.90;;;;;;4988121;28;19926;-67
2023/06/04 10:11:48;;;;;;;;;;;22.60;93.50;;;;;;4982498;28;19972;-67
2023/06/04 10:14:21;;;;;;;;;;;22.70;92.50;;;;;;4985914;28;19933;-68
2023/06/04 10:16:53;;;;;;;;;;;22.80;91.80;;;;;;4983904;28;19933;-67
2023/06/04 10:19:20;;;;;;;;;;;22.80;91.50;;;;;;4990022;28;19932;-68
2023/06/04 10:21:52;;;;;;;;;;;22.90;91.40;;;;;;4990374;28;19925;-68
2023/06/04 10:24:26;;;;;;;;;;;23.00;91.90;;;;;;4983473;28;20294;-69
2023/06/04 10:26:58;;;;;;;;;;;23.10;90.80;;;;;;4972791;28;19926;-68
2023/06/04 10:29:30;;;;;;;;;;;23.30;91.60;;;;;;4985908;28;20025;-69
2023/06/04 10:32:02;;;;;;;;;;;23.30;88.30;;;;;;4986584;28;19936;-68
2023/06/04 10:34:35;;;;;;;;;;;23.20;86.00;;;;;;4990131;28;19933;-68
2023/06/04 10:37:18;;;;;;;;;;;23.30;90.60;;;;;;4992690;28;19932;-68
2023/06/04 10:39:54;;;;;;;;;;;23.50;89.80;;;;;;4991845;28;19930;-69
2023/06/04 10:42:21;;;;;;;;;;;23.60;88.20;;;;;;4989955;28;19940;-68
2023/06/04 10:44:49;;;;;;;;;;;23.70;85.10;;;;;;4991549;28;20384;-67
2023/06/04 10:47:22;;;;;;;;;;;23.80;86.70;;;;;;4990750;28;20302;-69
2023/06/04 10:49:54;;;;;;;;;;;23.70;84.90;;;;;;4983697;28;20028;-69
2023/06/04 10:52:26;;;;;;;;;;;23.60;86.20;;;;;;4987975;28;20449;-68
2023/06/04 10:55:08;;;;;;;;;;;23.70;84.70;;;;;;4993879;23;19926;-63
2023/06/04 10:57:35;;;;;;;;;;;23.70;82.70;;;;;;4965979;28;20415;-66
2023/06/04 11:00:09;;;;;;;;;;;23.70;83.50;;;;;;4978724;28;19926;-66
2023/06/04 11:02:51;;;;;;;;;;;23.80;82.20;;;;;;4964510;28;19969;-66
2023/06/04 11:05:33;;;;;;;;;;;24.00;83.10;;;;;;4956915;28;19958;-66
2023/06/04 11:08:09;;;;;;;;;;;24.20;83.20;;;;;;4947752;28;20318;-66
2023/06/04 11:10:42;;;;;;;;;;;24.50;80.20;;;;;;4946346;28;19935;-66
2023/06/04 11:13:14;;;;;;;;;;;24.60;77.10;;;;;;4950370;28;19950;-66
2023/06/04 11:15:48;;;;;;;;;;;24.70;76.50;;;;;;4943235;28;19930;-66
2023/06/04 11:18:20;;;;;;;;;;;24.70;76.90;;;;;;4948278;28;19927;-66
2023/06/04 11:21:00;;;;;;;;;;;24.70;75.80;;;;;;4941411;28;19962;-66
2023/06/04 11:23:33;;;;;;;;;;;24.90;77.30;;;;;;4940490;28;20371;-66
2023/06/04 11:26:05;;;;;;;;;;;25.00;75.40;;;;;;4943435;28;20018;-66
2023/06/04 11:28:38;;;;;;;;;;;24.80;76.80;;;;;;4964347;28;19934;-66
2023/06/04 11:31:09;;;;;;;;;;;24.60;76.10;;;;;;4961537;28;19930;-66
2023/06/04 11:33:45;;;;;;;;;;;24.40;75.30;;;;;;4948557;28;19970;-66
2023/06/04 11:36:26;;;;;;;;;;;24.40;76.10;;;;;;4946609;28;20284;-66
2023/06/04 11:38:54;;;;;;;;;;;24.50;75.70;;;;;;4947494;28;20045;-66
2023/06/04 11:41:21;;;;;;;;;;;24.60;74.20;;;;;;4946603;28;19927;-66
2023/06/04 11:43:48;;;;;;;;;;;24.80;73.20;;;;;;4939935;28;19931;-66
2023/06/04 11:46:20;;;;;;;;;;;25.10;73.40;;;;;;4952411;28;20292;-66
2023/06/04 11:48:52;;;;;;;;;;;25.00;67.80;;;;;;4945921;28;19985;-66
2023/06/04 11:51:24;;;;;;;;;;;24.90;73.10;;;;;;4947501;28;19958;-66
2023/06/04 11:53:56;;;;;;;;;;;24.70;71.10;;;;;;4950061;28;19957;-66
2023/06/04 11:56:28;;;;;;;;;;;24.60;70.00;;;;;;4946516;28;19931;-65
2023/06/04 11:59:00;;;;;;;;;;;24.80;70.90;;;;;;4943051;28;19926;-65
2023/06/04 12:01:32;;;;;;;;;;;25.00;71.30;;;;;;4943563;28;19926;-65
2023/06/04 12:04:11;;;;;;;;;;;25.40;73.50;;;;;;4956038;28;20002;-65
2023/06/04 12:07:00;;;;;;;;;;;25.50;70.10;;;;;;4940315;28;19970;-65
2023/06/04 12:09:34;;;;;;;;;;;25.50;71.40;;;;;;4943204;28;19927;-68
2023/06/04 12:12:07;;;;;;;;;;;25.70;72.10;;;;;;4952106;28;20299;-66
2023/06/04 12:14:39;;;;;;;;;;;25.80;67.90;;;;;;4948169;28;19927;-66
2023/06/04 12:17:10;;;;;;;;;;;25.70;68.60;;;;;;4947575;28;19937;-66
2023/06/04 12:19:49;;;;;;;;;;;25.80;67.70;;;;;;4946596;28;19930;-66
2023/06/04 12:22:21;;;;;;;;;;;25.80;68.90;;;;;;4955712;28;19988;-66
2023/06/04 12:24:55;;;;;;;;;;;25.90;66.10;;;;;;4943504;28;19930;-66
2023/06/04 12:27:24;;;;;;;;;;;26.10;65.10;;;;;;4951199;28;20359;-66
2023/06/04 12:30:03;;;;;;;;;;;26.20;63.10;;;;;;4944623;28;20292;-66
2023/06/04 12:32:35;;;;;;;;;;;26.30;64.30;;;;;;4950488;28;19927;-66
2023/06/04 12:35:07;;;;;;;;;;;26.50;67.40;;;;;;4942999;28;19961;-66
2023/06/04 12:37:39;;;;;;;;;;;26.60;66.00;;;;;;4945257;28;19938;-66
2023/06/04 12:40:11;;;;;;;;;;;26.80;64.90;;;;;;4949164;28;19927;-66
2023/06/04 12:42:43;;;;;;;;;;;26.80;63.30;;;;;;4946559;28;19966;-66
2023/06/04 12:45:15;;;;;;;;;;;26.70;64.40;;;;;;4946525;28;19934;-66
2023/06/04 12:47:48;;;;;;;;;;;26.70;63.00;;;;;;4946953;28;19930;-66
2023/06/04 12:50:19;;;;;;;;;;;26.70;63.90;;;;;;4946895;28;19927;-66
2023/06/04 12:52:51;;;;;;;;;;;26.60;63.50;;;;;;4945480;28;20330;-66
2023/06/04 12:55:22;;;;;;;;;;;26.30;58.80;;;;;;4942209;28;19931;-66
2023/06/04 12:57:54;;;;;;;;;;;26.30;58.90;;;;;;4943257;28;19933;-66
2023/06/04 13:00:26;;;;;;;;;;;26.30;60.40;;;;;;4941957;28;19927;-66
2023/06/04 13:02:59;;;;;;;;;;;26.40;60.40;;;;;;4942306;28;19926;-66
2023/06/04 13:05:31;;;;;;;;;;;26.30;62.00;;;;;;4959449;28;19931;-66
2023/06/04 13:08:03;;;;;;;;;;;26.30;64.00;;;;;;4946406;28;20312;-66
2023/06/04 13:10:35;;;;;;;;;;;26.20;63.20;;;;;;4946290;28;20022;-66
2023/06/04 13:13:07;;;;;;;;;;;26.10;62.70;;;;;;4945411;28;19934;-66
2023/06/04 13:15:34;;;;;;;;;;;26.10;63.90;;;;;;4947229;28;19973;-66
2023/06/04 13:18:01;;;;;;;;;;;26.20;63.50;;;;;;4947515;28;20047;-66
2023/06/04 13:20:28;;;;;;;;;;;26.30;63.50;;;;;;4944354;28;19934;-66
2023/06/04 13:22:59;;;;;;;;;;;26.60;63.40;;;;;;4944832;28;19926;-66
2023/06/04 13:25:33;;;;;;;;;;;26.90;60.70;;;;;;4959297;28;19933;-66
2023/06/04 13:28:05;;;;;;;;;;;26.90;59.10;;;;;;4963002;28;19958;-66
2023/06/04 13:30:31;;;;;;;;;;;26.90;58.10;;;;;;4945881;28;20487;-66
2023/06/04 13:32:58;;;;;;;;;;;27.00;59.00;;;;;;4943960;28;20280;-66
2023/06/04 13:35:31;;;;;;;;;;;26.90;56.10;;;;;;4948519;28;19934;-66
2023/06/04 13:37:57;;;;;;;;;;;26.60;56.70;;;;;;4948447;28;20027;-66
2023/06/04 13:40:29;;;;;;;;;;;26.60;60.70;;;;;;4947711;28;20220;-66
2023/06/04 13:43:02;;;;;;;;;;;26.50;57.40;;;;;;4946803;28;19930;-66
2023/06/04 13:45:34;;;;;;;;;;;26.70;58.60;;;;;;4945413;28;19935;-66
2023/06/04 13:48:07;;;;;;;;;;;27.00;58.30;;;;;;4942140;28;20009;-66
2023/06/04 13:50:38;;;;;;;;;;;27.10;56.40;;;;;;4959825;28;19926;-66
2023/06/04 13:53:12;;;;;;;;;;;27.00;56.80;;;;;;4943870;28;19940;-66
2023/06/04 13:55:45;;;;;;;;;;;27.10;58.70;;;;;;4947725;28;19942;-66
2023/06/04 13:58:17;;;;;;;;;;;27.10;58.90;;;;;;4959855;28;19930;-66
2023/06/04 14:00:49;;;;;;;;;;;27.00;58.40;;;;;;4963022;28;20339;-66
2023/06/04 14:03:16;;;;;;;;;;;26.70;56.70;;;;;;4947938;28;20022;-66
2023/06/04 14:05:43;;;;;;;;;;;26.60;58.80;;;;;;4947756;28;19927;-66
2023/06/04 14:08:12;;;;;;;;;;;26.60;58.20;;;;;;4943751;28;19927;-66
2023/06/04 14:10:44;;;;;;;;;;;26.70;58.20;;;;;;4947759;28;19930;-66
2023/06/04 14:13:10;;;;;;;;;;;26.80;57.30;;;;;;4940613;28;19926;-65
2023/06/04 14:15:42;;;;;;;;;;;26.80;57.90;;;;;;4958951;28;20387;-68
2023/06/04 14:18:14;;;;;;;;;;;26.90;60.20;;;;;;4957178;28;19927;-67
2023/06/04 14:20:47;;;;;;;;;;;27.10;62.40;;;;;;4947095;28;20025;-66
2023/06/04 14:23:18;;;;;;;;;;;27.30;58.80;;;;;;4966223;28;19927;-66
2023/06/04 14:25:45;;;;;;;;;;;27.50;57.70;;;;;;4952506;28;20049;-66
2023/06/04 14:28:18;;;;;;;;;;;27.40;57.10;;;;;;4950014;28;20346;-66
2023/06/04 14:30:50;;;;;;;;;;;27.20;55.50;;;;;;4945585;28;19930;-66
2023/06/04 14:33:17;;;;;;;;;;;27.50;56.40;;;;;;4943041;28;20369;-66
2023/06/04 14:35:48;;;;;;;;;;;27.80;54.80;;;;;;4941093;28;19926;-66
2023/06/04 14:38:20;;;;;;;;;;;28.00;56.10;;;;;;4938263;28;20340;-66
2023/06/04 14:40:55;;;;;;;;;;;28.10;55.20;;;;;;4939855;28;20003;-66